RYR6EG LATI-LFML
Flight info
| Callsign | RYR6EG |
|---|---|
| Flight time | 2h 17m |
| Altitude | 37000 |
| Route | DIRES2R DIRES DCT PAPIZ DCT OKIMO DCT DOGUS DCT PNZ DCT EPIKU DCT GINOX DCT RASPA UN854 TINOT TINOT1L |
| Aircraft | B738/M-SDE2E3FGHIRWXY/LB1 |
Departure
| Time | 2026-05-08 16:49 |
|---|---|
| Airport | Tirana International Airport Mother Teresa (LATI) |
Arrival
| Time | 2026-05-08 19:06 |
|---|---|
| Airport | Marseille Provence Airport (LFML) |
| Time | Latitude | Longitude | Altitude | Speed | Heading |
|---|---|---|---|---|---|
| 2026-05-08 16:37 | 41.41949 | 19.71518 | 122 ft | 0 kts | 263° |
| 2026-05-08 16:41 | 41.41951 | 19.71539 | 122 ft | 3 kts | 264° |
| 2026-05-08 16:41 | 41.41949 | 19.71569 | 123 ft | 4 kts | 311° |
| 2026-05-08 16:41 | 41.41928 | 19.71583 | 117 ft | 4 kts | 354° |
| 2026-05-08 16:42 | 41.41918 | 19.71585 | 122 ft | 0 kts | 354° |
| 2026-05-08 16:44 | 41.41920 | 19.71584 | 122 ft | 1 kts | 354° |
| 2026-05-08 16:44 | 41.41968 | 19.71578 | 119 ft | 13 kts | 354° |
| 2026-05-08 16:44 | 41.42098 | 19.71560 | 121 ft | 20 kts | 354° |
| 2026-05-08 16:45 | 41.42228 | 19.71543 | 120 ft | 18 kts | 354° |
| 2026-05-08 16:45 | 41.42358 | 19.71525 | 117 ft | 18 kts | 354° |
| 2026-05-08 16:45 | 41.42474 | 19.71510 | 114 ft | 16 kts | 354° |
| 2026-05-08 16:45 | 41.42585 | 19.71495 | 117 ft | 16 kts | 354° |
| 2026-05-08 16:46 | 41.42664 | 19.71553 | 113 ft | 15 kts | 76° |
| 2026-05-08 16:46 | 41.42680 | 19.71692 | 116 ft | 15 kts | 85° |
| 2026-05-08 16:46 | 41.42685 | 19.71828 | 115 ft | 14 kts | 86° |
| 2026-05-08 16:46 | 41.42620 | 19.71905 | 114 ft | 11 kts | 174° |
| 2026-05-08 16:47 | 41.42616 | 19.71905 | 117 ft | 0 kts | 176° |
| 2026-05-08 16:47 | 41.42615 | 19.71905 | 117 ft | 0 kts | 176° |
| 2026-05-08 16:48 | 41.42611 | 19.71906 | 117 ft | 3 kts | 176° |
| 2026-05-08 16:48 | 41.42436 | 19.71929 | 118 ft | 55 kts | 174° |
| 2026-05-08 16:48 | 41.41855 | 19.72007 | 121 ft | 110 kts | 174° |
| 2026-05-08 16:48 | 41.40935 | 19.72135 | 178 ft | 151 kts | 173° |
| 2026-05-08 16:49 | 41.39893 | 19.72295 | 724 ft | 152 kts | 173° |
| 2026-05-08 16:49 | 41.38805 | 19.72489 | 1208 ft | 163 kts | 173° |
| 2026-05-08 16:49 | 41.37665 | 19.72634 | 1811 ft | 165 kts | 174° |
| 2026-05-08 16:49 | 41.36505 | 19.72780 | 2408 ft | 177 kts | 175° |
| 2026-05-08 16:50 | 41.35168 | 19.72934 | 2678 ft | 207 kts | 175° |
| 2026-05-08 16:50 | 41.33648 | 19.73120 | 2893 ft | 231 kts | 174° |
| 2026-05-08 16:50 | 41.31958 | 19.73338 | 3164 ft | 257 kts | 174° |
| 2026-05-08 16:50 | 41.30156 | 19.73569 | 3892 ft | 262 kts | 174° |
| 2026-05-08 16:51 | 41.28333 | 19.73803 | 4766 ft | 264 kts | 174° |
| 2026-05-08 16:51 | 41.26497 | 19.74008 | 5557 ft | 267 kts | 181° |
| 2026-05-08 16:51 | 41.24711 | 19.73376 | 6340 ft | 270 kts | 211° |
| 2026-05-08 16:51 | 41.23373 | 19.71641 | 7114 ft | 274 kts | 237° |
| 2026-05-08 16:52 | 41.22494 | 19.69374 | 7859 ft | 278 kts | 245° |
| 2026-05-08 16:52 | 41.21710 | 19.67006 | 8608 ft | 282 kts | 246° |
| 2026-05-08 16:52 | 41.20946 | 19.64632 | 9339 ft | 285 kts | 246° |
| 2026-05-08 16:52 | 41.20151 | 19.62176 | 10175 ft | 284 kts | 245° |
| 2026-05-08 16:53 | 41.18503 | 19.57142 | 10868 ft | 320 kts | 246° |
| 2026-05-08 16:53 | 41.17584 | 19.54364 | 11224 ft | 334 kts | 246° |
| 2026-05-08 16:53 | 41.16640 | 19.51526 | 11901 ft | 336 kts | 246° |
| 2026-05-08 16:54 | 41.15698 | 19.48702 | 12792 ft | 333 kts | 246° |
| 2026-05-08 16:54 | 41.14754 | 19.45881 | 13490 ft | 337 kts | 246° |
| 2026-05-08 16:54 | 41.13790 | 19.43006 | 14064 ft | 345 kts | 246° |
| 2026-05-08 16:54 | 41.12809 | 19.40085 | 14769 ft | 348 kts | 246° |
| 2026-05-08 16:55 | 41.11821 | 19.37148 | 15489 ft | 350 kts | 246° |
| 2026-05-08 16:55 | 41.10822 | 19.34179 | 16149 ft | 354 kts | 246° |
| 2026-05-08 16:55 | 41.09810 | 19.31176 | 16749 ft | 360 kts | 246° |
| 2026-05-08 16:55 | 41.08784 | 19.28129 | 17370 ft | 364 kts | 246° |
| 2026-05-08 16:56 | 41.07745 | 19.25049 | 17967 ft | 368 kts | 246° |
| 2026-05-08 16:56 | 41.06695 | 19.21941 | 18583 ft | 371 kts | 246° |
| 2026-05-08 16:56 | 41.05532 | 19.18868 | 19129 ft | 377 kts | 237° |
| 2026-05-08 16:56 | 41.03810 | 19.16214 | 19674 ft | 382 kts | 228° |
| 2026-05-08 16:57 | 41.01979 | 19.13638 | 20244 ft | 386 kts | 229° |
| 2026-05-08 16:57 | 41.00140 | 19.11025 | 20736 ft | 390 kts | 229° |
| 2026-05-08 16:57 | 40.98294 | 19.08375 | 21232 ft | 394 kts | 229° |
| 2026-05-08 16:57 | 40.96435 | 19.05686 | 21740 ft | 397 kts | 229° |
| 2026-05-08 16:58 | 40.94568 | 19.02977 | 22211 ft | 401 kts | 230° |
| 2026-05-08 16:58 | 40.92679 | 19.00238 | 22673 ft | 404 kts | 230° |
| 2026-05-08 16:58 | 40.90901 | 18.97353 | 23103 ft | 406 kts | 240° |
| 2026-05-08 16:58 | 40.89788 | 18.93939 | 23521 ft | 407 kts | 256° |
| 2026-05-08 16:59 | 40.89358 | 18.90247 | 23989 ft | 408 kts | 270° |
| 2026-05-08 16:59 | 40.89483 | 18.86499 | 24448 ft | 410 kts | 274° |
| 2026-05-08 16:59 | 40.89697 | 18.82734 | 24844 ft | 413 kts | 274° |
| 2026-05-08 16:59 | 40.89926 | 18.78939 | 25244 ft | 416 kts | 274° |
| 2026-05-08 17:00 | 40.90145 | 18.75169 | 25639 ft | 418 kts | 274° |
| 2026-05-08 17:00 | 40.90356 | 18.71330 | 26056 ft | 420 kts | 274° |
| 2026-05-08 17:00 | 40.90554 | 18.67479 | 26456 ft | 421 kts | 274° |
| 2026-05-08 17:00 | 40.90746 | 18.63602 | 26813 ft | 424 kts | 274° |
| 2026-05-08 17:01 | 40.90933 | 18.59702 | 27159 ft | 426 kts | 273° |
| 2026-05-08 17:01 | 40.91117 | 18.55783 | 27495 ft | 429 kts | 273° |
| 2026-05-08 17:01 | 40.91301 | 18.51838 | 27834 ft | 430 kts | 273° |
| 2026-05-08 17:01 | 40.91485 | 18.47885 | 28201 ft | 431 kts | 273° |
| 2026-05-08 17:02 | 40.91667 | 18.43917 | 28512 ft | 433 kts | 273° |
| 2026-05-08 17:02 | 40.91849 | 18.39934 | 28817 ft | 436 kts | 273° |
| 2026-05-08 17:02 | 40.92031 | 18.35920 | 29107 ft | 438 kts | 273° |
| 2026-05-08 17:02 | 40.92213 | 18.31901 | 29443 ft | 438 kts | 273° |
| 2026-05-08 17:03 | 40.92392 | 18.27884 | 29850 ft | 437 kts | 273° |
| 2026-05-08 17:03 | 40.92570 | 18.23880 | 30290 ft | 435 kts | 273° |
| 2026-05-08 17:03 | 40.92746 | 18.19904 | 30748 ft | 432 kts | 273° |
| 2026-05-08 17:03 | 40.92920 | 18.15951 | 31210 ft | 429 kts | 273° |
| 2026-05-08 17:04 | 40.93033 | 18.13350 | 31486 ft | 427 kts | 273° |
| 2026-05-08 17:04 | 40.93203 | 18.09432 | 31844 ft | 427 kts | 273° |
| 2026-05-08 17:04 | 40.93371 | 18.05518 | 32227 ft | 425 kts | 273° |
| 2026-05-08 17:04 | 40.93541 | 18.01630 | 32651 ft | 422 kts | 273° |
| 2026-05-08 17:05 | 40.93718 | 17.97767 | 33034 ft | 420 kts | 273° |
| 2026-05-08 17:05 | 40.93896 | 17.93927 | 33547 ft | 414 kts | 274° |
| 2026-05-08 17:05 | 40.94070 | 17.90164 | 34114 ft | 407 kts | 274° |
| 2026-05-08 17:05 | 40.94241 | 17.86438 | 34458 ft | 405 kts | 274° |
| 2026-05-08 17:06 | 40.94410 | 17.82714 | 34702 ft | 406 kts | 274° |
| 2026-05-08 17:06 | 40.94578 | 17.78982 | 34920 ft | 407 kts | 274° |
| 2026-05-08 17:06 | 40.94744 | 17.75236 | 35127 ft | 408 kts | 274° |
| 2026-05-08 17:06 | 40.94910 | 17.71490 | 35383 ft | 408 kts | 274° |
| 2026-05-08 17:07 | 40.95074 | 17.67751 | 35658 ft | 407 kts | 274° |
| 2026-05-08 17:07 | 40.95237 | 17.64019 | 35947 ft | 406 kts | 274° |
| 2026-05-08 17:07 | 40.95398 | 17.60303 | 36221 ft | 404 kts | 274° |
| 2026-05-08 17:07 | 40.95556 | 17.56591 | 36485 ft | 404 kts | 274° |
| 2026-05-08 17:08 | 40.95713 | 17.52891 | 36719 ft | 403 kts | 273° |
| 2026-05-08 17:08 | 40.95869 | 17.49194 | 36974 ft | 402 kts | 273° |
| 2026-05-08 17:08 | 40.96176 | 17.41812 | 36955 ft | 399 kts | 273° |
| 2026-05-08 17:09 | 40.96474 | 17.34565 | 36959 ft | 391 kts | 273° |
| 2026-05-08 17:09 | 40.96765 | 17.27390 | 36982 ft | 390 kts | 273° |
| 2026-05-08 17:10 | 40.97050 | 17.20231 | 36991 ft | 389 kts | 273° |
| 2026-05-08 17:10 | 40.97331 | 17.13081 | 36993 ft | 389 kts | 273° |
| 2026-05-08 17:11 | 40.97607 | 17.05921 | 37003 ft | 390 kts | 273° |
| 2026-05-08 17:11 | 40.97879 | 16.98750 | 37000 ft | 391 kts | 273° |
| 2026-05-08 17:12 | 40.98148 | 16.91557 | 37008 ft | 391 kts | 273° |
| 2026-05-08 17:12 | 40.98413 | 16.84360 | 37010 ft | 392 kts | 273° |
| 2026-05-08 17:13 | 40.98672 | 16.77159 | 37016 ft | 392 kts | 273° |
| 2026-05-08 17:13 | 40.98926 | 16.70006 | 37018 ft | 392 kts | 273° |
| 2026-05-08 17:14 | 40.99177 | 16.62808 | 37018 ft | 391 kts | 273° |
| 2026-05-08 17:14 | 40.99423 | 16.55616 | 37021 ft | 391 kts | 273° |
| 2026-05-08 17:15 | 40.99662 | 16.48429 | 37015 ft | 390 kts | 273° |
| 2026-05-08 17:15 | 40.99899 | 16.41259 | 37007 ft | 390 kts | 273° |
| 2026-05-08 17:16 | 41.00131 | 16.34095 | 37010 ft | 389 kts | 273° |
| 2026-05-08 17:16 | 41.00358 | 16.26950 | 37008 ft | 388 kts | 273° |
| 2026-05-08 17:17 | 41.00580 | 16.19808 | 37009 ft | 388 kts | 273° |
| 2026-05-08 17:17 | 41.00799 | 16.12680 | 37012 ft | 387 kts | 273° |
| 2026-05-08 17:18 | 41.01012 | 16.05558 | 37011 ft | 387 kts | 273° |
| 2026-05-08 17:18 | 41.01219 | 15.98440 | 37009 ft | 387 kts | 273° |
| 2026-05-08 17:19 | 41.01422 | 15.91339 | 37006 ft | 386 kts | 273° |
| 2026-05-08 17:19 | 41.01622 | 15.84249 | 37012 ft | 385 kts | 273° |
| 2026-05-08 17:20 | 41.01816 | 15.77182 | 37015 ft | 384 kts | 273° |
| 2026-05-08 17:20 | 41.01995 | 15.70131 | 37016 ft | 382 kts | 271° |
| 2026-05-08 17:21 | 41.01870 | 15.63104 | 37016 ft | 382 kts | 269° |
| 2026-05-08 17:21 | 41.01637 | 15.56092 | 37028 ft | 381 kts | 269° |
| 2026-05-08 17:22 | 41.01409 | 15.49095 | 37032 ft | 380 kts | 269° |
| 2026-05-08 17:22 | 41.01192 | 15.42105 | 37041 ft | 380 kts | 269° |
| 2026-05-08 17:23 | 41.00980 | 15.35123 | 37045 ft | 379 kts | 269° |
| 2026-05-08 17:23 | 41.00765 | 15.28140 | 37051 ft | 380 kts | 269° |
| 2026-05-08 17:24 | 41.00547 | 15.21182 | 37048 ft | 381 kts | 269° |
| 2026-05-08 17:24 | 41.00323 | 15.14170 | 37043 ft | 381 kts | 269° |
| 2026-05-08 17:25 | 41.00093 | 15.07158 | 37048 ft | 381 kts | 269° |
| 2026-05-08 17:25 | 40.99859 | 15.00143 | 37035 ft | 382 kts | 269° |
| 2026-05-08 17:26 | 40.99624 | 14.93126 | 37028 ft | 382 kts | 269° |
| 2026-05-08 17:26 | 40.99383 | 14.86112 | 37026 ft | 381 kts | 269° |
| 2026-05-08 17:27 | 40.99139 | 14.79108 | 37007 ft | 381 kts | 269° |
| 2026-05-08 17:27 | 40.98889 | 14.72116 | 37007 ft | 380 kts | 269° |
| 2026-05-08 17:28 | 40.98636 | 14.65145 | 37004 ft | 379 kts | 269° |
| 2026-05-08 17:28 | 40.98379 | 14.58188 | 36998 ft | 378 kts | 269° |
| 2026-05-08 17:29 | 40.98119 | 14.51242 | 36994 ft | 377 kts | 269° |
| 2026-05-08 17:29 | 40.97854 | 14.44315 | 36989 ft | 377 kts | 269° |
| 2026-05-08 17:30 | 40.97588 | 14.37407 | 36995 ft | 376 kts | 269° |
| 2026-05-08 17:30 | 40.97318 | 14.30514 | 36991 ft | 375 kts | 269° |
| 2026-05-08 17:31 | 40.97043 | 14.23635 | 36991 ft | 374 kts | 269° |
| 2026-05-08 17:31 | 40.96766 | 14.16764 | 36990 ft | 374 kts | 269° |
| 2026-05-08 17:32 | 40.96485 | 14.09892 | 36994 ft | 374 kts | 269° |
| 2026-05-08 17:32 | 40.96200 | 14.03035 | 36990 ft | 375 kts | 269° |
| 2026-05-08 17:33 | 40.95912 | 13.96194 | 36998 ft | 375 kts | 269° |
| 2026-05-08 17:33 | 40.95616 | 13.89310 | 36994 ft | 375 kts | 269° |
| 2026-05-08 17:34 | 40.95316 | 13.82425 | 36989 ft | 375 kts | 269° |
| 2026-05-08 17:34 | 40.95014 | 13.75549 | 36989 ft | 374 kts | 269° |
| 2026-05-08 17:35 | 40.94707 | 13.68687 | 36990 ft | 373 kts | 269° |
| 2026-05-08 17:35 | 40.94398 | 13.61839 | 36990 ft | 373 kts | 269° |
| 2026-05-08 17:36 | 40.94085 | 13.55001 | 36991 ft | 372 kts | 268° |
| 2026-05-08 17:36 | 40.93768 | 13.48172 | 36989 ft | 372 kts | 268° |
| 2026-05-08 17:37 | 40.93448 | 13.41354 | 36989 ft | 371 kts | 268° |
| 2026-05-08 17:37 | 40.93124 | 13.34546 | 36990 ft | 371 kts | 268° |
| 2026-05-08 17:38 | 40.92796 | 13.27738 | 36992 ft | 371 kts | 268° |
| 2026-05-08 17:38 | 40.92464 | 13.20929 | 36992 ft | 371 kts | 268° |
| 2026-05-08 17:39 | 40.92128 | 13.14123 | 36992 ft | 371 kts | 268° |
| 2026-05-08 17:39 | 40.91789 | 13.07312 | 36993 ft | 371 kts | 268° |
| 2026-05-08 17:40 | 40.91445 | 13.00499 | 36991 ft | 371 kts | 268° |
| 2026-05-08 17:40 | 40.91182 | 12.93688 | 36994 ft | 370 kts | 271° |
| 2026-05-08 17:41 | 40.91240 | 12.86926 | 36992 ft | 370 kts | 272° |
| 2026-05-08 17:41 | 40.91318 | 12.80115 | 36990 ft | 371 kts | 272° |
| 2026-05-08 17:42 | 40.91384 | 12.73307 | 36991 ft | 370 kts | 272° |
| 2026-05-08 17:42 | 40.91439 | 12.66504 | 36990 ft | 370 kts | 271° |
| 2026-05-08 17:43 | 40.91486 | 12.59713 | 36993 ft | 369 kts | 271° |
| 2026-05-08 17:43 | 40.91529 | 12.52934 | 36994 ft | 369 kts | 271° |
| 2026-05-08 17:44 | 40.91567 | 12.46160 | 36989 ft | 368 kts | 271° |
| 2026-05-08 17:44 | 40.91600 | 12.39392 | 36992 ft | 368 kts | 271° |
| 2026-05-08 17:45 | 40.91631 | 12.32628 | 36991 ft | 368 kts | 271° |
| 2026-05-08 17:45 | 40.91656 | 12.25872 | 36990 ft | 367 kts | 271° |
| 2026-05-08 17:46 | 40.91680 | 12.19122 | 36992 ft | 367 kts | 271° |
| 2026-05-08 17:46 | 40.91700 | 12.12373 | 36992 ft | 367 kts | 271° |
| 2026-05-08 17:47 | 40.91713 | 12.05632 | 36990 ft | 367 kts | 271° |
| 2026-05-08 17:47 | 40.91720 | 12.00024 | 36988 ft | 367 kts | 271° |
| 2026-05-08 17:48 | 40.91728 | 11.92140 | 36996 ft | 367 kts | 270° |
| 2026-05-08 17:48 | 40.91731 | 11.85403 | 37000 ft | 367 kts | 270° |
| 2026-05-08 17:49 | 40.91729 | 11.78720 | 37000 ft | 366 kts | 270° |
| 2026-05-08 17:49 | 40.91723 | 11.71998 | 37001 ft | 366 kts | 270° |
| 2026-05-08 17:50 | 40.91713 | 11.65265 | 37001 ft | 366 kts | 270° |
| 2026-05-08 17:50 | 40.91700 | 11.58548 | 36999 ft | 365 kts | 270° |
| 2026-05-08 17:51 | 40.91683 | 11.51842 | 36999 ft | 365 kts | 270° |
| 2026-05-08 17:51 | 40.91663 | 11.45115 | 37000 ft | 365 kts | 270° |
| 2026-05-08 17:52 | 40.91643 | 11.39492 | 36999 ft | 365 kts | 270° |
| 2026-05-08 17:53 | 40.91600 | 11.29486 | 37000 ft | 365 kts | 270° |
| 2026-05-08 17:53 | 40.91566 | 11.22778 | 37000 ft | 365 kts | 270° |
| 2026-05-08 17:54 | 40.91525 | 11.16055 | 37004 ft | 366 kts | 270° |
| 2026-05-08 17:54 | 40.91481 | 11.09322 | 37004 ft | 366 kts | 270° |
| 2026-05-08 17:55 | 40.91438 | 11.02586 | 37011 ft | 366 kts | 270° |
| 2026-05-08 17:55 | 40.91391 | 10.95847 | 37009 ft | 367 kts | 269° |
| 2026-05-08 17:56 | 40.91337 | 10.89094 | 37013 ft | 368 kts | 269° |
| 2026-05-08 17:56 | 40.91276 | 10.82341 | 37007 ft | 368 kts | 269° |
| 2026-05-08 17:57 | 40.91216 | 10.75587 | 37009 ft | 367 kts | 269° |
| 2026-05-08 17:57 | 40.91151 | 10.68836 | 37019 ft | 367 kts | 269° |
| 2026-05-08 17:58 | 40.91082 | 10.62094 | 37020 ft | 367 kts | 269° |
| 2026-05-08 17:58 | 40.91009 | 10.55357 | 37015 ft | 366 kts | 269° |
| 2026-05-08 17:59 | 40.90932 | 10.48620 | 37020 ft | 366 kts | 269° |
| 2026-05-08 17:59 | 40.90850 | 10.41898 | 37017 ft | 365 kts | 269° |
| 2026-05-08 18:00 | 40.90766 | 10.35185 | 37020 ft | 365 kts | 269° |
| 2026-05-08 18:00 | 40.90631 | 10.25111 | 37022 ft | 366 kts | 269° |
| 2026-05-08 18:01 | 40.90537 | 10.18385 | 37016 ft | 366 kts | 269° |
| 2026-05-08 18:01 | 40.90437 | 10.11660 | 37021 ft | 366 kts | 268° |
| 2026-05-08 18:02 | 40.90335 | 10.04931 | 37018 ft | 366 kts | 268° |
| 2026-05-08 18:02 | 40.90229 | 9.98203 | 37018 ft | 366 kts | 268° |
| 2026-05-08 18:03 | 40.90120 | 9.91468 | 37022 ft | 366 kts | 268° |
| 2026-05-08 18:03 | 40.90006 | 9.84785 | 37017 ft | 366 kts | 268° |
| 2026-05-08 18:04 | 40.89888 | 9.78056 | 37019 ft | 366 kts | 268° |
| 2026-05-08 18:04 | 40.89766 | 9.71332 | 37019 ft | 366 kts | 268° |
| 2026-05-08 18:05 | 40.89633 | 9.64610 | 37014 ft | 366 kts | 268° |
| 2026-05-08 18:05 | 40.89507 | 9.57886 | 37022 ft | 366 kts | 268° |
| 2026-05-08 18:06 | 40.89373 | 9.51155 | 37020 ft | 366 kts | 268° |
| 2026-05-08 18:06 | 40.89237 | 9.44421 | 37019 ft | 367 kts | 268° |
| 2026-05-08 18:07 | 40.89096 | 9.37683 | 37018 ft | 367 kts | 267° |
| 2026-05-08 18:07 | 40.88950 | 9.30939 | 37021 ft | 368 kts | 267° |
| 2026-05-08 18:08 | 40.88802 | 9.24184 | 37017 ft | 368 kts | 267° |
| 2026-05-08 18:08 | 40.88647 | 9.17425 | 37006 ft | 368 kts | 266° |
| 2026-05-08 18:09 | 40.88485 | 9.10647 | 37017 ft | 370 kts | 266° |
| 2026-05-08 18:09 | 40.88322 | 9.03816 | 37018 ft | 374 kts | 266° |
| 2026-05-08 18:10 | 40.88153 | 8.96922 | 37031 ft | 377 kts | 266° |
| 2026-05-08 18:10 | 40.87977 | 8.89964 | 37019 ft | 380 kts | 266° |
| 2026-05-08 18:11 | 40.87798 | 8.82962 | 37021 ft | 382 kts | 266° |
| 2026-05-08 18:11 | 40.87613 | 8.75938 | 37020 ft | 383 kts | 266° |
| 2026-05-08 18:12 | 40.87424 | 8.68915 | 37016 ft | 382 kts | 266° |
| 2026-05-08 18:12 | 40.87231 | 8.61920 | 37011 ft | 381 kts | 266° |
| 2026-05-08 18:13 | 40.87035 | 8.54943 | 37011 ft | 379 kts | 266° |
| 2026-05-08 18:13 | 40.86836 | 8.48042 | 37018 ft | 377 kts | 266° |
| 2026-05-08 18:14 | 40.86633 | 8.41135 | 37017 ft | 375 kts | 266° |
| 2026-05-08 18:14 | 40.86426 | 8.34256 | 37017 ft | 374 kts | 266° |
| 2026-05-08 18:15 | 40.86217 | 8.27393 | 37025 ft | 374 kts | 266° |
| 2026-05-08 18:15 | 40.86005 | 8.20540 | 37018 ft | 373 kts | 266° |
| 2026-05-08 18:16 | 40.85786 | 8.13692 | 37016 ft | 373 kts | 266° |
| 2026-05-08 18:16 | 40.85797 | 8.06833 | 37029 ft | 374 kts | 271° |
| 2026-05-08 18:17 | 40.86902 | 8.00086 | 37027 ft | 381 kts | 285° |
| 2026-05-08 18:17 | 40.89328 | 7.93788 | 37023 ft | 390 kts | 298° |
| 2026-05-08 18:18 | 40.92406 | 7.87861 | 37024 ft | 392 kts | 298° |
| 2026-05-08 18:18 | 40.95517 | 7.81929 | 37018 ft | 393 kts | 298° |
| 2026-05-08 18:19 | 40.98621 | 7.75957 | 37019 ft | 394 kts | 298° |
| 2026-05-08 18:19 | 41.01720 | 7.69951 | 37018 ft | 396 kts | 298° |
| 2026-05-08 18:20 | 41.04824 | 7.63910 | 37020 ft | 397 kts | 298° |
| 2026-05-08 18:20 | 41.07933 | 7.57846 | 37020 ft | 398 kts | 298° |
| 2026-05-08 18:21 | 41.11045 | 7.51765 | 37015 ft | 399 kts | 298° |
| 2026-05-08 18:21 | 41.14156 | 7.45674 | 37017 ft | 399 kts | 298° |
| 2026-05-08 18:22 | 41.17268 | 7.39567 | 37019 ft | 400 kts | 298° |
| 2026-05-08 18:22 | 41.20377 | 7.33451 | 37018 ft | 399 kts | 298° |
| 2026-05-08 18:23 | 41.23463 | 7.27373 | 37017 ft | 399 kts | 298° |
| 2026-05-08 18:23 | 41.26564 | 7.21253 | 37020 ft | 399 kts | 298° |
| 2026-05-08 18:24 | 41.29660 | 7.15135 | 37031 ft | 399 kts | 298° |
| 2026-05-08 18:24 | 41.32751 | 7.09005 | 37025 ft | 399 kts | 298° |
| 2026-05-08 18:25 | 41.35839 | 7.02869 | 37026 ft | 399 kts | 298° |
| 2026-05-08 18:25 | 41.38925 | 6.96727 | 37033 ft | 399 kts | 298° |
| 2026-05-08 18:26 | 41.42010 | 6.90576 | 37031 ft | 400 kts | 298° |
| 2026-05-08 18:26 | 41.45096 | 6.84410 | 37029 ft | 400 kts | 298° |
| 2026-05-08 18:27 | 41.47664 | 6.79272 | 37024 ft | 401 kts | 298° |
| 2026-05-08 18:27 | 41.51274 | 6.72027 | 37022 ft | 401 kts | 298° |
| 2026-05-08 18:28 | 41.54364 | 6.65817 | 37028 ft | 402 kts | 298° |
| 2026-05-08 18:28 | 41.57458 | 6.59585 | 37041 ft | 403 kts | 298° |
| 2026-05-08 18:29 | 41.60559 | 6.53329 | 37038 ft | 404 kts | 298° |
| 2026-05-08 18:29 | 41.63661 | 6.47051 | 37040 ft | 405 kts | 298° |
| 2026-05-08 18:30 | 41.66772 | 6.40743 | 37041 ft | 407 kts | 299° |
| 2026-05-08 18:30 | 41.69889 | 6.34416 | 36973 ft | 409 kts | 299° |
| 2026-05-08 18:31 | 41.71459 | 6.31222 | 36673 ft | 409 kts | 299° |
| 2026-05-08 18:31 | 41.73011 | 6.28067 | 36302 ft | 403 kts | 299° |
| 2026-05-08 18:31 | 41.74544 | 6.24945 | 35936 ft | 399 kts | 299° |
| 2026-05-08 18:31 | 41.76062 | 6.21847 | 35529 ft | 396 kts | 299° |
| 2026-05-08 18:32 | 41.77566 | 6.18773 | 35135 ft | 393 kts | 299° |
| 2026-05-08 18:32 | 41.79061 | 6.15718 | 34751 ft | 391 kts | 299° |
| 2026-05-08 18:32 | 41.80546 | 6.12679 | 34363 ft | 388 kts | 299° |
| 2026-05-08 18:32 | 41.82020 | 6.09660 | 33977 ft | 386 kts | 299° |
| 2026-05-08 18:33 | 41.83483 | 6.06656 | 33592 ft | 384 kts | 299° |
| 2026-05-08 18:33 | 41.84938 | 6.03669 | 33214 ft | 382 kts | 299° |
| 2026-05-08 18:33 | 41.86386 | 6.00695 | 32834 ft | 379 kts | 299° |
| 2026-05-08 18:33 | 41.87823 | 5.97740 | 32455 ft | 378 kts | 299° |
| 2026-05-08 18:34 | 41.89256 | 5.94791 | 32081 ft | 376 kts | 299° |
| 2026-05-08 18:34 | 41.90677 | 5.91862 | 31706 ft | 374 kts | 299° |
| 2026-05-08 18:34 | 41.92091 | 5.88947 | 31335 ft | 371 kts | 299° |
| 2026-05-08 18:34 | 41.93494 | 5.86045 | 30968 ft | 370 kts | 298° |
| 2026-05-08 18:35 | 41.94890 | 5.83156 | 30596 ft | 368 kts | 298° |
| 2026-05-08 18:35 | 41.96280 | 5.80283 | 30237 ft | 365 kts | 298° |
| 2026-05-08 18:35 | 41.97660 | 5.77425 | 29879 ft | 364 kts | 298° |
| 2026-05-08 18:35 | 41.99031 | 5.74584 | 29512 ft | 361 kts | 298° |
| 2026-05-08 18:36 | 42.00375 | 5.71795 | 29145 ft | 359 kts | 298° |
| 2026-05-08 18:36 | 42.01744 | 5.68952 | 28760 ft | 356 kts | 299° |
| 2026-05-08 18:36 | 42.03068 | 5.66201 | 28400 ft | 354 kts | 299° |
| 2026-05-08 18:36 | 42.04399 | 5.63432 | 28032 ft | 352 kts | 299° |
| 2026-05-08 18:37 | 42.05722 | 5.60677 | 27667 ft | 349 kts | 299° |
| 2026-05-08 18:37 | 42.07036 | 5.57938 | 27299 ft | 347 kts | 299° |
| 2026-05-08 18:37 | 42.08338 | 5.55220 | 26933 ft | 345 kts | 299° |
| 2026-05-08 18:37 | 42.09633 | 5.52516 | 26575 ft | 342 kts | 299° |
| 2026-05-08 18:38 | 42.10918 | 5.49832 | 26220 ft | 340 kts | 299° |
| 2026-05-08 18:38 | 42.12194 | 5.47162 | 25863 ft | 338 kts | 300° |
| 2026-05-08 18:38 | 42.13460 | 5.44512 | 25509 ft | 335 kts | 300° |
| 2026-05-08 18:38 | 42.14788 | 5.41947 | 25139 ft | 335 kts | 310° |
| 2026-05-08 18:39 | 42.16659 | 5.40056 | 24813 ft | 340 kts | 329° |
| 2026-05-08 18:39 | 42.18898 | 5.39048 | 24549 ft | 342 kts | 346° |
| 2026-05-08 18:39 | 42.20488 | 5.38741 | 24344 ft | 342 kts | 348° |
| 2026-05-08 18:39 | 42.23618 | 5.38302 | 23886 ft | 340 kts | 349° |
| 2026-05-08 18:40 | 42.25206 | 5.38099 | 23656 ft | 339 kts | 349° |
| 2026-05-08 18:40 | 42.27542 | 5.37793 | 23312 ft | 337 kts | 349° |
| 2026-05-08 18:40 | 42.29866 | 5.37474 | 22969 ft | 335 kts | 349° |
| 2026-05-08 18:40 | 42.32175 | 5.37144 | 22629 ft | 333 kts | 349° |
| 2026-05-08 18:41 | 42.34471 | 5.36808 | 22288 ft | 331 kts | 349° |
| 2026-05-08 18:41 | 42.36756 | 5.36470 | 21949 ft | 329 kts | 349° |
| 2026-05-08 18:41 | 42.39026 | 5.36131 | 21611 ft | 327 kts | 349° |
| 2026-05-08 18:41 | 42.41286 | 5.35790 | 21277 ft | 326 kts | 349° |
| 2026-05-08 18:42 | 42.43534 | 5.35452 | 20940 ft | 324 kts | 349° |
| 2026-05-08 18:42 | 42.45771 | 5.35116 | 20606 ft | 323 kts | 349° |
| 2026-05-08 18:42 | 42.47996 | 5.34783 | 20273 ft | 321 kts | 349° |
| 2026-05-08 18:42 | 42.50211 | 5.34450 | 19942 ft | 320 kts | 349° |
| 2026-05-08 18:43 | 42.52416 | 5.34119 | 19618 ft | 318 kts | 349° |
| 2026-05-08 18:43 | 42.54613 | 5.33789 | 19281 ft | 317 kts | 349° |
| 2026-05-08 18:43 | 42.56800 | 5.33461 | 18956 ft | 315 kts | 350° |
| 2026-05-08 18:43 | 42.58948 | 5.33137 | 18634 ft | 314 kts | 350° |
| 2026-05-08 18:44 | 42.61118 | 5.32810 | 18309 ft | 313 kts | 350° |
| 2026-05-08 18:44 | 42.63275 | 5.32485 | 17987 ft | 312 kts | 350° |
| 2026-05-08 18:44 | 42.65426 | 5.32160 | 17665 ft | 310 kts | 350° |
| 2026-05-08 18:44 | 42.67596 | 5.31833 | 17343 ft | 309 kts | 350° |
| 2026-05-08 18:45 | 42.69686 | 5.31430 | 17027 ft | 305 kts | 341° |
| 2026-05-08 18:45 | 42.71563 | 5.30213 | 16817 ft | 297 kts | 326° |
| 2026-05-08 18:45 | 42.73355 | 5.28765 | 16581 ft | 303 kts | 326° |
| 2026-05-08 18:45 | 42.75184 | 5.27275 | 16374 ft | 309 kts | 326° |
| 2026-05-08 18:46 | 42.77037 | 5.25772 | 16117 ft | 313 kts | 326° |
| 2026-05-08 18:46 | 42.78910 | 5.24258 | 15860 ft | 313 kts | 326° |
| 2026-05-08 18:46 | 42.80785 | 5.22754 | 15618 ft | 312 kts | 327° |
| 2026-05-08 18:46 | 42.82640 | 5.21264 | 15373 ft | 309 kts | 327° |
| 2026-05-08 18:47 | 42.84488 | 5.19785 | 15133 ft | 307 kts | 327° |
| 2026-05-08 18:47 | 42.86320 | 5.18313 | 14900 ft | 306 kts | 326° |
| 2026-05-08 18:47 | 42.88151 | 5.16848 | 14670 ft | 305 kts | 327° |
| 2026-05-08 18:47 | 42.89972 | 5.15382 | 14435 ft | 304 kts | 327° |
| 2026-05-08 18:48 | 42.91797 | 5.13919 | 14204 ft | 304 kts | 328° |
| 2026-05-08 18:48 | 42.93634 | 5.12470 | 13970 ft | 306 kts | 332° |
| 2026-05-08 18:48 | 42.95679 | 5.11655 | 13720 ft | 310 kts | 353° |
| 2026-05-08 18:48 | 42.97825 | 5.11472 | 13507 ft | 309 kts | 356° |
| 2026-05-08 18:49 | 42.99973 | 5.11347 | 13267 ft | 307 kts | 356° |
| 2026-05-08 18:49 | 43.02115 | 5.11224 | 13025 ft | 308 kts | 356° |
| 2026-05-08 18:49 | 43.04256 | 5.11103 | 12792 ft | 308 kts | 356° |
| 2026-05-08 18:49 | 43.06396 | 5.10973 | 12549 ft | 308 kts | 355° |
| 2026-05-08 18:50 | 43.08533 | 5.10828 | 12318 ft | 307 kts | 357° |
| 2026-05-08 18:50 | 43.10667 | 5.10686 | 12079 ft | 306 kts | 356° |
| 2026-05-08 18:50 | 43.12773 | 5.10532 | 11849 ft | 301 kts | 356° |
| 2026-05-08 18:50 | 43.14822 | 5.10388 | 11615 ft | 297 kts | 356° |
| 2026-05-08 18:51 | 43.16873 | 5.10243 | 11400 ft | 295 kts | 356° |
| 2026-05-08 18:51 | 43.18928 | 5.10098 | 11174 ft | 296 kts | 356° |
| 2026-05-08 18:51 | 43.20983 | 5.09952 | 10951 ft | 296 kts | 356° |
| 2026-05-08 18:51 | 43.23038 | 5.09805 | 10724 ft | 296 kts | 356° |
| 2026-05-08 18:52 | 43.25091 | 5.09658 | 10500 ft | 295 kts | 357° |
| 2026-05-08 18:52 | 43.27141 | 5.09510 | 10270 ft | 295 kts | 357° |
| 2026-05-08 18:52 | 43.29183 | 5.09364 | 10043 ft | 292 kts | 357° |
| 2026-05-08 18:52 | 43.31197 | 5.09219 | 9814 ft | 288 kts | 357° |
| 2026-05-08 18:53 | 43.33185 | 5.09077 | 9585 ft | 284 kts | 357° |
| 2026-05-08 18:53 | 43.35155 | 5.08935 | 9390 ft | 283 kts | 357° |
| 2026-05-08 18:53 | 43.37123 | 5.08793 | 9173 ft | 284 kts | 357° |
| 2026-05-08 18:53 | 43.39100 | 5.08702 | 8961 ft | 284 kts | 3° |
| 2026-05-08 18:54 | 43.41060 | 5.09019 | 8759 ft | 283 kts | 10° |
| 2026-05-08 18:54 | 43.43001 | 5.09487 | 8555 ft | 283 kts | 11° |
| 2026-05-08 18:54 | 43.44936 | 5.09964 | 8351 ft | 283 kts | 11° |
| 2026-05-08 18:54 | 43.46873 | 5.10428 | 8148 ft | 282 kts | 10° |
| 2026-05-08 18:55 | 43.50731 | 5.11307 | 7742 ft | 280 kts | 9° |
| 2026-05-08 18:55 | 43.52648 | 5.11729 | 7540 ft | 278 kts | 9° |
| 2026-05-08 18:55 | 43.54555 | 5.12149 | 7346 ft | 277 kts | 9° |
| 2026-05-08 18:56 | 43.56453 | 5.12564 | 7143 ft | 275 kts | 9° |
| 2026-05-08 18:56 | 43.58337 | 5.12977 | 6947 ft | 274 kts | 9° |
| 2026-05-08 18:56 | 43.60222 | 5.12996 | 6720 ft | 273 kts | 345° |
| 2026-05-08 18:56 | 43.61921 | 5.11918 | 6565 ft | 266 kts | 328° |
| 2026-05-08 18:57 | 43.63447 | 5.10570 | 6375 ft | 262 kts | 327° |
| 2026-05-08 18:57 | 43.64479 | 5.09656 | 6246 ft | 259 kts | 327° |
| 2026-05-08 18:57 | 43.66473 | 5.07906 | 5996 ft | 254 kts | 327° |
| 2026-05-08 18:57 | 43.67937 | 5.06570 | 5809 ft | 250 kts | 321° |
| 2026-05-08 18:58 | 43.69080 | 5.04812 | 5616 ft | 245 kts | 295° |
| 2026-05-08 18:58 | 43.69296 | 5.02580 | 5456 ft | 234 kts | 253° |
| 2026-05-08 18:58 | 43.68600 | 5.00619 | 5340 ft | 224 kts | 237° |
| 2026-05-08 18:58 | 43.67670 | 4.98927 | 5159 ft | 220 kts | 223° |
| 2026-05-08 18:59 | 43.66537 | 4.97538 | 5020 ft | 217 kts | 219° |
| 2026-05-08 18:59 | 43.65424 | 4.96183 | 4888 ft | 209 kts | 222° |
| 2026-05-08 18:59 | 43.64391 | 4.94846 | 4731 ft | 198 kts | 213° |
| 2026-05-08 18:59 | 43.63129 | 4.94414 | 4574 ft | 185 kts | 170° |
| 2026-05-08 19:00 | 43.62024 | 4.95151 | 4443 ft | 176 kts | 135° |
| 2026-05-08 19:00 | 43.61224 | 4.96431 | 4358 ft | 176 kts | 133° |
| 2026-05-08 19:00 | 43.60402 | 4.97637 | 4338 ft | 175 kts | 134° |
| 2026-05-08 19:00 | 43.59544 | 4.98869 | 4142 ft | 179 kts | 134° |
| 2026-05-08 19:01 | 43.58678 | 5.00104 | 3897 ft | 177 kts | 135° |
| 2026-05-08 19:01 | 43.57847 | 5.01289 | 3680 ft | 167 kts | 135° |
| 2026-05-08 19:01 | 43.57053 | 5.02406 | 3448 ft | 159 kts | 135° |
| 2026-05-08 19:01 | 43.56291 | 5.03498 | 3249 ft | 158 kts | 135° |
| 2026-05-08 19:02 | 43.55521 | 5.04599 | 3042 ft | 161 kts | 135° |
| 2026-05-08 19:02 | 43.54742 | 5.05710 | 2841 ft | 160 kts | 134° |
| 2026-05-08 19:02 | 43.53992 | 5.06781 | 2612 ft | 152 kts | 134° |
| 2026-05-08 19:02 | 43.53269 | 5.07810 | 2414 ft | 148 kts | 134° |
| 2026-05-08 19:03 | 43.52551 | 5.08834 | 2222 ft | 149 kts | 134° |
| 2026-05-08 19:03 | 43.51829 | 5.09863 | 2023 ft | 149 kts | 134° |
| 2026-05-08 19:03 | 43.51111 | 5.10887 | 1824 ft | 148 kts | 134° |
| 2026-05-08 19:03 | 43.50399 | 5.11904 | 1628 ft | 147 kts | 134° |
| 2026-05-08 19:04 | 43.49686 | 5.12920 | 1435 ft | 148 kts | 134° |
| 2026-05-08 19:04 | 43.48974 | 5.13935 | 1244 ft | 147 kts | 134° |
| 2026-05-08 19:04 | 43.48275 | 5.14933 | 1044 ft | 146 kts | 135° |
| 2026-05-08 19:04 | 43.47573 | 5.15935 | 852 ft | 145 kts | 134° |
| 2026-05-08 19:05 | 43.46873 | 5.16934 | 657 ft | 145 kts | 134° |
| 2026-05-08 19:05 | 43.46173 | 5.17933 | 463 ft | 144 kts | 134° |
| 2026-05-08 19:05 | 43.45477 | 5.18931 | 247 ft | 144 kts | 134° |
| 2026-05-08 19:05 | 43.44790 | 5.19920 | 68 ft | 142 kts | 134° |
| 2026-05-08 19:06 | 43.44149 | 5.20828 | 34 ft | 114 kts | 135° |
| 2026-05-08 19:06 | 43.43746 | 5.21402 | 36 ft | 52 kts | 134° |
| 2026-05-08 19:06 | 43.43616 | 5.21591 | 35 ft | 19 kts | 131° |
| 2026-05-08 19:06 | 43.43513 | 5.21730 | 33 ft | 21 kts | 134° |
| 2026-05-08 19:07 | 43.43413 | 5.21874 | 34 ft | 21 kts | 134° |
| 2026-05-08 19:07 | 43.43338 | 5.22033 | 36 ft | 20 kts | 102° |
| 2026-05-08 19:07 | 43.43341 | 5.22219 | 36 ft | 19 kts | 70° |
| 2026-05-08 19:07 | 43.43440 | 5.22268 | 34 ft | 16 kts | 334° |
| 2026-05-08 19:08 | 43.43535 | 5.22194 | 36 ft | 15 kts | 328° |
| 2026-05-08 19:08 | 43.43625 | 5.22121 | 36 ft | 15 kts | 332° |
| 2026-05-08 19:08 | 43.43710 | 5.22164 | 35 ft | 14 kts | 47° |
| 2026-05-08 19:08 | 43.43788 | 5.22230 | 36 ft | 13 kts | 350° |
| 2026-05-08 19:09 | 43.43870 | 5.22191 | 36 ft | 12 kts | 330° |
| 2026-05-08 19:09 | 43.43924 | 5.22133 | 35 ft | 5 kts | 313° |
| 2026-05-08 19:09 | 43.43948 | 5.22097 | 34 ft | 6 kts | 313° |
| 2026-05-08 19:09 | 43.43976 | 5.22057 | 36 ft | 2 kts | 313° |
| 2026-05-08 19:10 | 43.43979 | 5.22052 | 36 ft | 1 kts | 313° |
| 2026-05-08 19:10 | 43.44004 | 5.22043 | 36 ft | 7 kts | 19° |
| 2026-05-08 19:10 | 43.44048 | 5.22092 | 36 ft | 0 kts | 40° |
| 2026-05-08 19:10 | 43.44053 | 5.22097 | 35 ft | 0 kts | 40° |